createdAt,value
2023-05-05T00:00:12.085Z,25.78
2023-05-05T00:01:12.039Z,25.78
2023-05-05T00:02:12.087Z,25.78
2023-05-05T00:03:12.096Z,25.78
2023-05-05T00:04:12.068Z,25.81
2023-05-05T00:05:12.080Z,25.77
2023-05-05T00:06:12.091Z,25.75
2023-05-05T00:07:12.324Z,25.75
2023-05-05T00:08:12.131Z,25.75
2023-05-05T00:09:12.103Z,25.77
2023-05-05T00:10:12.141Z,25.77
2023-05-05T00:11:12.113Z,25.75
2023-05-05T00:12:12.154Z,25.75
2023-05-05T00:13:12.190Z,25.72
2023-05-05T00:14:12.144Z,25.75
2023-05-05T00:15:12.192Z,25.72
2023-05-05T00:16:12.178Z,25.74
2023-05-05T00:17:12.321Z,25.74
2023-05-05T00:18:12.167Z,25.75
2023-05-05T00:19:12.202Z,25.74
2023-05-05T00:20:12.174Z,25.72
2023-05-05T00:21:12.228Z,25.75
2023-05-05T00:22:12.189Z,25.75
2023-05-05T00:23:12.215Z,25.72
2023-05-05T00:24:12.220Z,25.74
2023-05-05T00:25:12.203Z,25.74
2023-05-05T00:26:12.228Z,25.75
2023-05-05T00:27:12.265Z,25.72
2023-05-05T00:28:12.312Z,25.72
2023-05-05T00:29:12.318Z,25.74
2023-05-05T00:30:12.330Z,25.74
2023-05-05T00:31:12.354Z,25.72
2023-05-05T00:32:12.414Z,25.72
2023-05-05T00:33:12.362Z,25.72
2023-05-05T00:34:12.394Z,25.71
2023-05-05T00:35:12.434Z,25.71
2023-05-05T00:36:12.431Z,25.70
2023-05-05T00:37:12.443Z,25.70
2023-05-05T00:38:12.462Z,25.71
2023-05-05T00:39:12.501Z,25.71
2023-05-05T00:40:12.503Z,25.71
2023-05-05T00:41:12.468Z,25.71
2023-05-05T00:42:12.851Z,25.68
2023-05-05T00:43:12.475Z,25.68
2023-05-05T00:44:12.504Z,25.67
2023-05-05T00:45:12.536Z,25.70
2023-05-05T00:46:12.571Z,25.68
2023-05-05T00:47:12.861Z,25.70
2023-05-05T00:48:12.604Z,25.67
2023-05-05T00:49:12.613Z,25.70
2023-05-05T00:50:12.615Z,25.67
2023-05-05T00:51:12.615Z,25.71
2023-05-05T00:52:12.649Z,25.70
2023-05-05T00:53:12.693Z,25.68
2023-05-05T00:54:12.705Z,25.70
2023-05-05T00:55:12.752Z,25.65
2023-05-05T00:56:12.734Z,25.68
2023-05-05T00:57:12.723Z,25.68
2023-05-05T00:58:12.761Z,25.68
2023-05-05T00:59:12.773Z,25.67
2023-05-05T01:00:12.820Z,25.68
2023-05-05T01:01:12.798Z,25.68
2023-05-05T01:02:12.820Z,25.68
2023-05-05T01:03:12.919Z,25.67
2023-05-05T01:04:12.865Z,25.68
2023-05-05T01:05:12.900Z,25.67
2023-05-05T01:06:12.877Z,25.68
2023-05-05T01:07:12.919Z,25.65
2023-05-05T01:08:12.945Z,25.68
2023-05-05T01:09:12.930Z,25.64
2023-05-05T01:10:20.470Z,25.64
2023-05-05T01:11:13.973Z,25.65
2023-05-05T01:12:12.965Z,25.65
2023-05-05T01:13:13.084Z,25.67
2023-05-05T01:14:12.971Z,25.65
2023-05-05T01:15:12.956Z,25.62
2023-05-05T01:16:13.019Z,25.64
2023-05-05T01:17:12.947Z,25.64
2023-05-05T01:18:12.939Z,25.65
2023-05-05T01:19:12.912Z,25.64
2023-05-05T01:20:12.912Z,25.62
2023-05-05T01:21:12.882Z,25.62
2023-05-05T01:22:12.922Z,25.62
2023-05-05T01:23:12.873Z,25.62
2023-05-05T01:24:12.904Z,25.64
2023-05-05T01:25:12.883Z,25.64
2023-05-05T01:26:12.895Z,25.64
2023-05-05T01:27:12.862Z,25.61
2023-05-05T01:28:12.861Z,25.61
2023-05-05T01:29:12.825Z,25.61
2023-05-05T01:30:12.846Z,25.61
2023-05-05T01:31:12.844Z,25.62
2023-05-05T01:32:12.799Z,25.62
2023-05-05T01:33:12.809Z,25.64
2023-05-05T01:34:12.833Z,25.61
2023-05-05T01:35:12.851Z,25.61
2023-05-05T01:36:12.857Z,25.61
2023-05-05T01:37:12.866Z,25.61
2023-05-05T01:38:12.840Z,25.60
2023-05-05T01:39:12.898Z,25.62
2023-05-05T01:40:12.893Z,25.60
2023-05-05T01:41:12.973Z,25.64
2023-05-05T01:42:12.911Z,25.60
2023-05-05T01:43:12.921Z,25.61
2023-05-05T01:44:12.915Z,25.62
2023-05-05T01:45:12.949Z,25.62
2023-05-05T01:46:13.011Z,25.61
2023-05-05T01:47:12.973Z,25.60
2023-05-05T01:48:13.006Z,25.61
2023-05-05T01:49:12.986Z,25.58
2023-05-05T01:50:12.994Z,25.58
2023-05-05T01:51:13.010Z,25.58
2023-05-05T01:52:13.011Z,25.61
2023-05-05T01:53:13.012Z,25.58
2023-05-05T01:54:12.975Z,25.60
2023-05-05T01:55:13.008Z,25.58
2023-05-05T01:56:12.999Z,25.58
2023-05-05T01:57:13.000Z,25.58
2023-05-05T01:58:13.035Z,25.60
2023-05-05T01:59:13.012Z,25.58
2023-05-05T02:00:13.059Z,25.57
2023-05-05T02:01:13.107Z,25.57
2023-05-05T02:02:13.114Z,25.55
2023-05-05T02:03:13.199Z,25.58
2023-05-05T02:04:13.084Z,25.57
2023-05-05T02:05:13.108Z,25.57
2023-05-05T02:06:13.130Z,25.58
2023-05-05T02:07:13.119Z,25.57
2023-05-05T02:08:13.392Z,25.55
2023-05-05T02:09:13.167Z,25.57
2023-05-05T02:10:13.143Z,25.57
2023-05-05T02:11:13.148Z,25.55
2023-05-05T02:12:13.188Z,25.55
2023-05-05T02:13:13.396Z,25.57
2023-05-05T02:14:13.294Z,25.55
2023-05-05T02:15:13.219Z,25.55
2023-05-05T02:16:13.391Z,25.54
2023-05-05T02:17:13.268Z,25.54
2023-05-05T02:18:13.260Z,25.52
2023-05-05T02:19:13.224Z,25.54
2023-05-05T02:20:13.237Z,25.55
2023-05-05T02:21:13.246Z,25.54
2023-05-05T02:22:13.267Z,25.55
2023-05-05T02:23:13.265Z,25.52
2023-05-05T02:24:13.261Z,25.52
2023-05-05T02:25:13.284Z,25.52
2023-05-05T02:26:13.321Z,25.54
2023-05-05T02:27:13.303Z,25.52
2023-05-05T02:28:13.412Z,25.51
2023-05-05T02:29:13.334Z,25.51
2023-05-05T02:30:13.364Z,25.51
2023-05-05T02:31:13.418Z,25.52
2023-05-05T02:32:13.326Z,25.51
2023-05-05T02:33:13.360Z,25.51
2023-05-05T02:34:13.373Z,25.52
2023-05-05T02:35:13.387Z,25.51
2023-05-05T02:36:13.384Z,25.52
2023-05-05T02:37:13.360Z,25.51
2023-05-05T02:38:13.372Z,25.51
2023-05-05T02:39:13.420Z,25.51
2023-05-05T02:40:13.422Z,25.50
2023-05-05T02:41:13.437Z,25.48
2023-05-05T02:42:13.431Z,25.52
2023-05-05T02:43:13.485Z,25.50
2023-05-05T02:44:13.456Z,25.50
2023-05-05T02:45:13.481Z,25.52
2023-05-05T02:46:13.471Z,25.50
2023-05-05T02:47:13.469Z,25.48
2023-05-05T02:48:13.503Z,25.51
2023-05-05T02:49:13.467Z,25.50
2023-05-05T02:50:13.504Z,25.50
2023-05-05T02:51:13.555Z,25.48
2023-05-05T02:52:13.532Z,25.50
2023-05-05T02:53:13.549Z,25.50
2023-05-05T02:54:13.535Z,25.50
2023-05-05T02:55:13.566Z,25.51
2023-05-05T02:56:13.586Z,25.50
2023-05-05T02:57:13.599Z,25.51
2023-05-05T02:58:13.639Z,25.48
2023-05-05T02:59:15.966Z,25.48
2023-05-05T03:00:13.646Z,25.51
2023-05-05T03:01:13.659Z,25.50
2023-05-05T03:02:13.593Z,25.48
2023-05-05T03:03:13.660Z,25.50
2023-05-05T03:04:13.589Z,25.48
2023-05-05T03:05:13.560Z,25.47
2023-05-05T03:06:13.609Z,25.47
2023-05-05T03:07:13.607Z,25.48
2023-05-05T03:08:13.548Z,25.47
2023-05-05T03:09:13.549Z,25.47
2023-05-05T03:10:13.559Z,25.47
2023-05-05T03:11:13.560Z,25.45
2023-05-05T03:12:13.559Z,25.47
2023-05-05T03:13:13.649Z,25.47
2023-05-05T03:14:13.545Z,25.45
2023-05-05T03:15:13.533Z,25.47
2023-05-05T03:16:13.501Z,25.45
2023-05-05T03:17:13.532Z,25.45
2023-05-05T03:18:13.509Z,25.48
2023-05-05T03:19:13.484Z,25.47
2023-05-05T03:20:13.484Z,25.47
2023-05-05T03:21:13.499Z,25.47
2023-05-05T03:22:13.503Z,25.47
2023-05-05T03:23:13.484Z,25.45
2023-05-05T03:24:13.450Z,25.44
2023-05-05T03:25:13.430Z,25.44
2023-05-05T03:26:13.449Z,25.44
2023-05-05T03:27:13.429Z,25.45
2023-05-05T03:28:13.441Z,25.44
2023-05-05T03:29:13.403Z,25.45
2023-05-05T03:30:13.395Z,25.44
2023-05-05T03:31:13.400Z,25.42
2023-05-05T03:32:13.429Z,25.42
2023-05-05T03:33:13.392Z,25.44
2023-05-05T03:34:13.382Z,25.42
2023-05-05T03:35:13.412Z,25.44
2023-05-05T03:36:13.401Z,25.42
2023-05-05T03:37:13.428Z,25.45
2023-05-05T03:38:13.376Z,25.42
2023-05-05T03:39:13.366Z,25.44
2023-05-05T03:40:13.361Z,25.42
2023-05-05T03:41:13.375Z,25.41
2023-05-05T03:42:13.338Z,25.42
2023-05-05T03:43:13.333Z,25.44
2023-05-05T03:44:13.325Z,25.42
2023-05-05T03:45:13.313Z,25.42
2023-05-05T03:46:13.315Z,25.42
2023-05-05T03:47:13.277Z,25.40
2023-05-05T03:48:13.267Z,25.40
2023-05-05T03:49:13.294Z,25.42
2023-05-05T03:50:13.282Z,25.41
2023-05-05T03:51:13.278Z,25.41
2023-05-05T03:52:14.977Z,25.41
2023-05-05T03:53:13.258Z,25.40
2023-05-05T03:54:13.251Z,25.42
2023-05-05T03:55:13.236Z,25.40
2023-05-05T03:56:13.225Z,25.38
2023-05-05T03:57:13.236Z,25.41
2023-05-05T03:58:13.243Z,25.41
2023-05-05T03:59:13.230Z,25.41
2023-05-05T04:00:13.213Z,25.38
2023-05-05T04:01:13.194Z,25.40
2023-05-05T04:02:13.203Z,25.40
2023-05-05T04:03:13.359Z,25.38
2023-05-05T04:04:13.259Z,25.38
2023-05-05T04:05:13.180Z,25.40
2023-05-05T04:06:13.156Z,25.38
2023-05-05T04:07:13.229Z,25.40
2023-05-05T04:08:13.450Z,25.38
2023-05-05T04:09:13.133Z,25.40
2023-05-05T04:10:13.162Z,25.40
2023-05-05T04:11:13.161Z,25.40
2023-05-05T04:12:13.143Z,25.38
2023-05-05T04:13:13.217Z,25.40
2023-05-05T04:14:13.126Z,25.36
2023-05-05T04:15:13.116Z,25.38
2023-05-05T04:16:13.151Z,25.38
2023-05-05T04:17:13.105Z,25.38
2023-05-05T04:18:13.869Z,25.38
2023-05-05T04:19:13.106Z,25.40
2023-05-05T04:20:13.102Z,25.38
2023-05-05T04:21:13.107Z,25.38
2023-05-05T04:22:13.059Z,25.41
2023-05-05T04:23:13.457Z,25.38
2023-05-05T04:24:13.073Z,25.38
2023-05-05T04:25:13.073Z,25.40
2023-05-05T04:26:13.051Z,25.37
2023-05-05T04:27:13.071Z,25.41
2023-05-05T04:28:13.074Z,25.40
2023-05-05T04:29:13.106Z,25.37
2023-05-05T04:30:13.182Z,25.38
2023-05-05T04:31:13.158Z,25.38
2023-05-05T04:32:13.117Z,25.40
2023-05-05T04:33:13.150Z,25.40
2023-05-05T04:34:13.112Z,25.38
2023-05-05T04:35:13.216Z,25.41
2023-05-05T04:36:13.141Z,25.40
2023-05-05T04:37:13.188Z,25.42
2023-05-05T04:38:13.230Z,25.37
2023-05-05T04:39:13.234Z,25.40
2023-05-05T04:40:13.249Z,25.42
2023-05-05T04:41:13.209Z,25.40
2023-05-05T04:42:13.240Z,25.40
2023-05-05T04:43:13.264Z,25.40
2023-05-05T04:44:13.279Z,25.41
2023-05-05T04:45:13.244Z,25.37
2023-05-05T04:46:13.272Z,25.40
2023-05-05T04:47:14.656Z,25.41
2023-05-05T04:48:13.317Z,25.41
2023-05-05T04:49:13.344Z,25.40
2023-05-05T04:50:13.375Z,25.41
2023-05-05T04:51:13.344Z,25.38
2023-05-05T04:52:13.379Z,25.37
2023-05-05T04:53:13.399Z,25.40
2023-05-05T04:54:13.407Z,25.38
2023-05-05T04:55:13.456Z,25.40
2023-05-05T04:56:13.494Z,25.38
2023-05-05T04:57:13.491Z,25.37
2023-05-05T04:58:13.535Z,25.40
2023-05-05T04:59:13.540Z,25.37
2023-05-05T05:00:13.569Z,25.37
2023-05-05T05:01:13.553Z,25.40
2023-05-05T05:02:13.677Z,25.38
2023-05-05T05:03:13.620Z,25.40
2023-05-05T05:04:13.578Z,25.37
2023-05-05T05:05:13.615Z,25.38
2023-05-05T05:06:13.632Z,25.41
2023-05-05T05:07:13.638Z,25.37
2023-05-05T05:08:13.640Z,25.37
2023-05-05T05:09:13.645Z,25.38
2023-05-05T05:10:13.657Z,25.38
2023-05-05T05:11:13.668Z,25.40
2023-05-05T05:12:13.690Z,25.37
2023-05-05T05:13:13.800Z,25.38
2023-05-05T05:14:13.721Z,25.38
2023-05-05T05:15:13.762Z,25.38
2023-05-05T05:16:13.807Z,25.38
2023-05-05T05:17:13.770Z,25.37
2023-05-05T05:18:13.820Z,25.38
2023-05-05T05:19:13.772Z,25.40
2023-05-05T05:20:13.776Z,25.40
2023-05-05T05:21:13.849Z,25.38
2023-05-05T05:22:13.833Z,25.38
2023-05-05T05:23:13.858Z,25.38
2023-05-05T05:24:13.838Z,25.38
2023-05-05T05:25:13.876Z,25.40
2023-05-05T05:26:13.880Z,25.38
2023-05-05T05:27:13.887Z,25.36
2023-05-05T05:28:13.894Z,25.38
2023-05-05T05:29:13.925Z,25.37
2023-05-05T05:30:13.937Z,25.38
2023-05-05T05:31:13.983Z,25.40
2023-05-05T05:32:13.996Z,25.38
2023-05-05T05:33:13.984Z,25.38
2023-05-05T05:34:14.024Z,25.41
2023-05-05T05:35:14.031Z,25.40
2023-05-05T05:36:14.004Z,25.40
2023-05-05T05:37:14.041Z,25.40
2023-05-05T05:38:14.470Z,25.42
2023-05-05T05:39:14.069Z,25.41
2023-05-05T05:40:14.028Z,25.40
2023-05-05T05:41:14.068Z,25.42
2023-05-05T05:42:14.086Z,25.41
2023-05-05T05:43:14.089Z,25.44
2023-05-05T05:44:14.098Z,25.41
2023-05-05T05:45:14.130Z,25.42
2023-05-05T05:46:14.256Z,25.44
2023-05-05T05:47:14.165Z,25.44
2023-05-05T05:48:14.175Z,25.42
2023-05-05T05:49:14.312Z,25.44
2023-05-05T05:50:14.177Z,25.47
2023-05-05T05:51:14.145Z,25.45
2023-05-05T05:52:14.149Z,25.42
2023-05-05T05:53:14.177Z,25.47
2023-05-05T05:54:14.168Z,25.47
2023-05-05T05:55:14.184Z,25.47
2023-05-05T05:56:14.987Z,25.47
2023-05-05T05:57:14.191Z,25.45
2023-05-05T05:58:14.505Z,25.48
2023-05-05T05:59:14.194Z,25.48
2023-05-05T06:00:14.207Z,25.48
2023-05-05T06:01:14.217Z,25.47
2023-05-05T06:02:14.351Z,25.48
2023-05-05T06:03:14.814Z,25.48
2023-05-05T06:04:14.250Z,25.48
2023-05-05T06:05:14.242Z,25.52
2023-05-05T06:06:14.261Z,25.55
2023-05-05T06:07:14.249Z,25.57
2023-05-05T06:08:14.312Z,25.61
2023-05-05T06:09:14.589Z,25.65
2023-05-05T06:10:26.590Z,25.70
2023-05-05T06:11:15.384Z,25.71
2023-05-05T06:12:14.388Z,25.75
2023-05-05T06:13:14.381Z,25.77
2023-05-05T06:14:14.505Z,25.80
2023-05-05T06:15:14.342Z,25.84
2023-05-05T06:16:14.329Z,25.91
2023-05-05T06:17:14.316Z,25.93
2023-05-05T06:18:14.360Z,25.93
2023-05-05T06:19:14.511Z,25.96
2023-05-05T06:20:14.325Z,25.92
2023-05-05T06:21:14.375Z,25.95
2023-05-05T06:22:14.413Z,26.01
2023-05-05T06:23:14.482Z,26.02
2023-05-05T06:24:14.551Z,26.02
2023-05-05T06:25:14.588Z,26.06
2023-05-05T06:26:14.631Z,26.08
2023-05-05T06:27:14.665Z,26.09
2023-05-05T06:28:14.717Z,26.15
2023-05-05T06:29:14.737Z,26.13
2023-05-05T06:30:14.827Z,26.19
2023-05-05T06:31:14.892Z,26.19
2023-05-05T06:32:14.894Z,26.22
2023-05-05T06:33:14.957Z,26.25
2023-05-05T06:34:15.005Z,26.25
2023-05-05T06:35:15.009Z,26.25
2023-05-05T06:36:15.060Z,26.29
2023-05-05T06:37:15.061Z,26.29
2023-05-05T06:38:15.139Z,26.32
2023-05-05T06:39:16.226Z,26.32
2023-05-05T06:40:15.164Z,26.35
2023-05-05T06:41:15.225Z,26.35
2023-05-05T06:42:15.220Z,26.32
2023-05-05T06:43:15.259Z,26.30
2023-05-05T06:44:15.313Z,26.36
2023-05-05T06:45:15.353Z,26.36
2023-05-05T06:46:15.411Z,26.36
2023-05-05T06:47:15.399Z,26.39
2023-05-05T06:48:15.437Z,26.42
2023-05-05T06:49:15.449Z,26.39
2023-05-05T06:50:15.492Z,26.22
2023-05-05T06:51:15.561Z,26.26
2023-05-05T06:52:15.546Z,26.28
2023-05-05T06:53:15.562Z,26.28
2023-05-05T06:54:15.647Z,25.52
2023-05-05T06:55:15.675Z,25.71
2023-05-05T06:56:15.720Z,25.78
2023-05-05T06:57:15.763Z,25.84
2023-05-05T06:58:15.839Z,25.91
2023-05-05T06:59:15.926Z,25.99
2023-05-05T07:00:15.918Z,26.08
2023-05-05T07:01:15.962Z,26.15
2023-05-05T07:02:15.996Z,26.21
2023-05-05T07:03:16.289Z,26.25
2023-05-05T07:04:16.180Z,26.32
2023-05-05T07:05:16.072Z,26.38
2023-05-05T07:06:16.083Z,26.44
2023-05-05T07:07:16.114Z,26.47
2023-05-05T07:08:16.108Z,26.53
2023-05-05T07:09:17.221Z,26.54
2023-05-05T07:10:16.145Z,26.62
2023-05-05T07:11:16.145Z,26.63
2023-05-05T07:12:16.158Z,26.66
2023-05-05T07:13:16.228Z,26.67
2023-05-05T07:14:16.171Z,26.70
2023-05-05T07:15:27.450Z,26.73
2023-05-05T07:16:17.196Z,26.77
2023-05-05T07:17:16.159Z,26.76
2023-05-05T07:18:16.165Z,26.80
2023-05-05T07:19:16.279Z,26.83
2023-05-05T07:20:16.154Z,26.87
2023-05-05T07:21:16.156Z,26.86
2023-05-05T07:22:16.139Z,26.89
2023-05-05T07:23:16.214Z,26.93
2023-05-05T07:24:16.115Z,26.94
2023-05-05T07:25:16.117Z,26.94
2023-05-05T07:26:16.091Z,26.95
2023-05-05T07:27:16.096Z,27.00
2023-05-05T07:28:16.088Z,27.01
2023-05-05T07:29:16.077Z,26.94
2023-05-05T07:30:18.419Z,26.97
2023-05-05T07:31:16.189Z,26.95
2023-05-05T07:32:16.180Z,27.00
2023-05-05T07:33:16.203Z,27.00
2023-05-05T07:34:16.230Z,27.01
2023-05-05T07:35:16.359Z,27.01
2023-05-05T07:36:16.298Z,27.04
2023-05-05T07:37:16.357Z,27.04
2023-05-05T07:38:16.396Z,27.08
2023-05-05T07:39:16.446Z,27.12
2023-05-05T07:40:16.503Z,27.11
2023-05-05T07:41:16.561Z,26.97
2023-05-05T07:42:16.620Z,27.04
2023-05-05T07:43:16.688Z,27.05
2023-05-05T07:44:16.737Z,27.08
2023-05-05T07:45:16.798Z,27.08
2023-05-05T07:46:16.886Z,27.11
2023-05-05T07:47:16.907Z,27.12
2023-05-05T07:48:16.968Z,27.18
2023-05-05T07:49:17.024Z,27.20
2023-05-05T07:50:17.094Z,27.22
2023-05-05T07:51:17.179Z,27.21
2023-05-05T07:52:17.198Z,27.24
2023-05-05T07:53:17.212Z,27.28
2023-05-05T07:54:17.259Z,27.28
2023-05-05T07:55:17.328Z,27.32
2023-05-05T07:56:17.388Z,27.34
2023-05-05T07:57:17.394Z,27.34
2023-05-05T07:58:17.467Z,27.38
2023-05-05T07:59:17.511Z,27.41
2023-05-05T08:00:17.549Z,27.38
2023-05-05T08:01:17.590Z,27.41
2023-05-05T08:02:17.653Z,27.45
2023-05-05T08:03:17.706Z,27.48
2023-05-05T08:04:18.097Z,27.48
2023-05-05T08:05:17.747Z,27.51
2023-05-05T08:06:17.798Z,27.52
2023-05-05T08:07:17.939Z,27.55
2023-05-05T08:08:17.842Z,27.55
2023-05-05T08:09:17.892Z,27.56
2023-05-05T08:10:17.891Z,27.59
2023-05-05T08:11:17.929Z,27.62
2023-05-05T08:12:17.967Z,27.62
2023-05-05T08:13:18.087Z,27.65
2023-05-05T08:14:18.056Z,27.69
2023-05-05T08:15:18.036Z,27.69
2023-05-05T08:16:18.098Z,27.69
2023-05-05T08:17:18.087Z,27.72
2023-05-05T08:18:18.151Z,27.73
2023-05-05T08:19:28.288Z,27.75
2023-05-05T08:20:19.119Z,27.76
2023-05-05T08:21:18.117Z,27.76
2023-05-05T08:22:18.123Z,27.75
2023-05-05T08:23:18.234Z,27.78
2023-05-05T08:24:18.559Z,27.76
2023-05-05T08:25:18.098Z,27.79
2023-05-05T08:26:18.119Z,27.78
2023-05-05T08:27:18.090Z,27.79
2023-05-05T08:28:18.091Z,27.76
2023-05-05T08:29:18.583Z,27.78
2023-05-05T08:30:18.085Z,27.78
2023-05-05T08:31:18.089Z,27.81
2023-05-05T08:32:18.051Z,27.79
2023-05-05T08:33:18.143Z,27.78
2023-05-05T08:34:18.043Z,27.79
2023-05-05T08:35:18.095Z,27.79
2023-05-05T08:36:18.047Z,27.79
2023-05-05T08:37:18.014Z,27.79
2023-05-05T08:38:17.988Z,27.78
2023-05-05T08:39:18.304Z,27.78
2023-05-05T08:40:18.110Z,27.76
2023-05-05T08:41:18.087Z,27.78
2023-05-05T08:42:29.301Z,27.79
2023-05-05T08:43:19.096Z,27.81
2023-05-05T08:44:18.109Z,27.82
2023-05-05T08:45:18.077Z,27.82
2023-05-05T08:46:18.192Z,27.82
2023-05-05T08:47:18.067Z,27.88
2023-05-05T08:48:18.031Z,27.85
2023-05-05T08:49:18.069Z,27.89
2023-05-05T08:50:18.084Z,27.88
2023-05-05T08:51:18.033Z,27.91
2023-05-05T08:52:18.121Z,27.91
2023-05-05T08:53:18.039Z,27.93
2023-05-05T08:54:18.109Z,27.93
2023-05-05T08:55:18.078Z,27.96
2023-05-05T08:56:17.973Z,27.97
2023-05-05T08:57:17.998Z,27.96
2023-05-05T08:58:18.020Z,27.99
2023-05-05T08:59:17.971Z,27.99
2023-05-05T09:00:17.964Z,28.00
2023-05-05T09:01:18.017Z,28.04
2023-05-05T09:02:18.007Z,28.04
2023-05-05T09:03:18.032Z,28.03
2023-05-05T09:04:17.976Z,28.04
2023-05-05T09:05:17.962Z,28.06
2023-05-05T09:06:17.990Z,28.07
2023-05-05T09:07:18.094Z,28.07
2023-05-05T09:08:18.133Z,28.06
2023-05-05T09:09:18.140Z,28.09
2023-05-05T09:10:18.128Z,28.09
2023-05-05T09:11:18.268Z,28.07
2023-05-05T09:12:18.165Z,28.12
2023-05-05T09:13:18.245Z,28.12
2023-05-05T09:14:18.188Z,28.09
2023-05-05T09:15:18.178Z,28.09
2023-05-05T09:16:18.215Z,28.10
2023-05-05T09:17:18.176Z,28.12
2023-05-05T09:18:18.242Z,28.14
2023-05-05T09:19:18.582Z,28.14
2023-05-05T09:20:18.206Z,28.16
2023-05-05T09:21:18.233Z,28.19
2023-05-05T09:22:18.220Z,28.19
2023-05-05T09:23:18.244Z,28.20
2023-05-05T09:24:18.248Z,28.22
2023-05-05T09:25:18.237Z,28.20
2023-05-05T09:26:18.225Z,28.22
2023-05-05T09:27:18.302Z,28.23
2023-05-05T09:28:18.258Z,28.26
2023-05-05T09:29:18.222Z,28.27
2023-05-05T09:30:18.265Z,28.24
2023-05-05T09:31:18.271Z,28.27
2023-05-05T09:32:18.230Z,28.26
2023-05-05T09:33:18.270Z,28.28
2023-05-05T09:34:18.263Z,28.28
2023-05-05T09:35:18.306Z,28.32
2023-05-05T09:36:18.308Z,28.33
2023-05-05T09:37:18.310Z,28.32
2023-05-05T09:38:18.327Z,28.32
2023-05-05T09:39:18.600Z,28.32
2023-05-05T09:40:18.385Z,28.33
2023-05-05T09:41:18.364Z,28.34
2023-05-05T09:42:18.410Z,28.34
2023-05-05T09:43:18.474Z,28.33
2023-05-05T09:44:18.412Z,28.36
2023-05-05T09:45:18.622Z,28.39
2023-05-05T09:46:18.516Z,28.36
2023-05-05T09:47:28.945Z,28.36
2023-05-05T09:48:19.458Z,28.39
2023-05-05T09:49:18.445Z,28.39
2023-05-05T09:50:18.831Z,28.39
2023-05-05T09:51:18.404Z,28.37
2023-05-05T09:52:18.411Z,28.39
2023-05-05T09:53:18.391Z,28.37
2023-05-05T09:54:19.505Z,28.37
2023-05-05T09:55:18.423Z,28.39
2023-05-05T09:56:18.376Z,28.39
2023-05-05T09:57:18.416Z,28.39
2023-05-05T09:58:18.537Z,28.42
2023-05-05T09:59:18.588Z,28.43
2023-05-05T10:00:18.583Z,28.40
2023-05-05T10:01:18.616Z,28.43
2023-05-05T10:02:18.648Z,28.40
2023-05-05T10:03:18.694Z,28.40
2023-05-05T10:04:18.748Z,28.43
2023-05-05T10:05:18.927Z,28.42
2023-05-05T10:06:18.820Z,28.43
2023-05-05T10:07:18.845Z,28.43
2023-05-05T10:08:18.909Z,28.44
2023-05-05T10:09:18.967Z,28.46
2023-05-05T10:10:18.992Z,28.44
2023-05-05T10:11:19.025Z,28.46
2023-05-05T10:12:19.065Z,28.44
2023-05-05T10:13:19.170Z,28.43
2023-05-05T10:14:19.180Z,28.44
2023-05-05T10:15:19.314Z,28.42
2023-05-05T10:16:19.288Z,28.46
2023-05-05T10:17:19.359Z,28.44
2023-05-05T10:18:19.412Z,28.44
2023-05-05T10:19:19.589Z,28.43
2023-05-05T10:20:19.507Z,28.46
2023-05-05T10:21:19.550Z,28.44
2023-05-05T10:22:19.615Z,28.44
2023-05-05T10:23:19.662Z,28.46
2023-05-05T10:24:19.678Z,28.47
2023-05-05T10:25:19.784Z,28.47
2023-05-05T10:26:19.857Z,28.48
2023-05-05T10:27:19.908Z,28.50
2023-05-05T10:28:19.927Z,28.48
2023-05-05T10:29:20.009Z,28.47
2023-05-05T10:30:20.058Z,28.50
2023-05-05T10:31:25.030Z,28.48
2023-05-05T10:32:46.517Z,28.50
2023-05-05T10:34:20.086Z,28.48
2023-05-05T10:35:20.083Z,28.50
2023-05-05T10:36:20.074Z,28.50
2023-05-05T10:37:20.089Z,28.48
2023-05-05T10:38:20.060Z,28.48
2023-05-05T10:39:20.065Z,28.48
2023-05-05T10:40:20.148Z,28.50
2023-05-05T10:41:20.071Z,28.50
2023-05-05T10:42:20.036Z,28.48
2023-05-05T10:43:20.024Z,28.50
2023-05-05T10:44:20.016Z,28.47
2023-05-05T10:45:20.124Z,28.44
2023-05-05T10:46:20.047Z,28.46
2023-05-05T10:47:20.065Z,28.46
2023-05-05T10:48:20.017Z,28.48
2023-05-05T10:49:19.969Z,28.43
2023-05-05T10:50:20.159Z,28.46
2023-05-05T10:51:30.937Z,28.46
2023-05-05T10:52:20.970Z,28.43
2023-05-05T10:53:19.973Z,28.44
2023-05-05T10:54:19.980Z,28.42
2023-05-05T10:55:20.132Z,28.40
2023-05-05T10:56:19.998Z,28.42
2023-05-05T10:57:19.946Z,28.40
2023-05-05T10:58:19.903Z,28.39
2023-05-05T10:59:19.922Z,28.40
2023-05-05T11:00:20.115Z,28.39
2023-05-05T11:01:19.893Z,28.42
2023-05-05T11:02:19.929Z,28.40
2023-05-05T11:03:20.007Z,28.42
2023-05-05T11:04:19.891Z,28.33
2023-05-05T11:05:20.138Z,28.36
2023-05-05T11:06:19.875Z,28.37
2023-05-05T11:07:19.866Z,28.37
2023-05-05T11:08:19.829Z,28.36
2023-05-05T11:09:19.883Z,28.36
2023-05-05T11:10:20.111Z,28.34
2023-05-05T11:11:19.850Z,28.36
2023-05-05T11:12:19.847Z,28.36
2023-05-05T11:13:19.997Z,28.34
2023-05-05T11:14:19.858Z,28.33
2023-05-05T11:15:20.136Z,28.33
2023-05-05T11:16:19.934Z,28.36
2023-05-05T11:17:19.904Z,28.33
2023-05-05T11:18:19.884Z,28.34
2023-05-05T11:19:20.097Z,28.28
2023-05-05T11:20:20.124Z,28.28
2023-05-05T11:21:19.914Z,28.32
2023-05-05T11:22:19.896Z,28.30
2023-05-05T11:23:19.892Z,28.28
2023-05-05T11:24:19.916Z,28.28
2023-05-05T11:25:20.130Z,28.28
2023-05-05T11:26:19.893Z,28.28
2023-05-05T11:27:19.899Z,28.30
2023-05-05T11:28:19.917Z,28.27
2023-05-05T11:29:19.920Z,28.26
2023-05-05T11:30:19.919Z,28.28
2023-05-05T11:31:20.084Z,28.27
2023-05-05T11:32:19.946Z,28.27
2023-05-05T11:33:19.898Z,28.27
2023-05-05T11:34:19.898Z,28.27
2023-05-05T11:35:20.257Z,28.26
2023-05-05T11:36:19.932Z,28.26
2023-05-05T11:37:19.921Z,28.24
2023-05-05T11:38:19.919Z,28.23
2023-05-05T11:39:19.937Z,28.24
2023-05-05T11:40:19.997Z,28.22
2023-05-05T11:41:19.980Z,28.20
2023-05-05T11:42:19.978Z,28.19
2023-05-05T11:43:20.020Z,28.20
2023-05-05T11:44:20.064Z,28.17
2023-05-05T11:45:20.126Z,28.17
2023-05-05T11:46:20.181Z,28.13
2023-05-05T11:47:20.120Z,28.12
2023-05-05T11:48:20.214Z,28.09
2023-05-05T11:49:20.159Z,28.12
2023-05-05T11:50:20.170Z,28.07
2023-05-05T11:51:20.325Z,28.06
2023-05-05T11:52:20.210Z,28.07
2023-05-05T11:53:20.231Z,28.06
2023-05-05T11:54:20.273Z,28.03
2023-05-05T11:55:20.326Z,28.04
2023-05-05T11:56:20.311Z,28.04
2023-05-05T11:57:20.330Z,28.03
2023-05-05T11:58:20.324Z,28.02
2023-05-05T11:59:20.407Z,28.03
2023-05-05T12:00:20.453Z,28.02
2023-05-05T12:01:20.423Z,28.00
2023-05-05T12:02:20.434Z,28.00
2023-05-05T12:03:20.528Z,27.99
2023-05-05T12:04:20.531Z,28.00
2023-05-05T12:05:20.687Z,27.97
2023-05-05T12:06:20.507Z,27.99
2023-05-05T12:07:20.580Z,28.00
2023-05-05T12:08:20.601Z,27.96
2023-05-05T12:09:20.616Z,27.99
2023-05-05T12:10:20.658Z,27.95
2023-05-05T12:11:20.626Z,27.95
2023-05-05T12:12:20.739Z,27.96
2023-05-05T12:13:20.752Z,27.97
2023-05-05T12:14:20.685Z,27.97
2023-05-05T12:15:21.174Z,27.93
2023-05-05T12:16:20.777Z,27.95
2023-05-05T12:17:20.776Z,27.92
2023-05-05T12:18:20.809Z,27.95
2023-05-05T12:19:20.812Z,27.93
2023-05-05T12:20:20.857Z,27.93
2023-05-05T12:21:20.844Z,27.92
2023-05-05T12:22:20.895Z,27.93
2023-05-05T12:23:20.976Z,27.91
2023-05-05T12:24:20.918Z,27.92
2023-05-05T12:25:20.936Z,27.92
2023-05-05T12:26:20.984Z,27.89
2023-05-05T12:27:20.976Z,27.89
2023-05-05T12:28:21.002Z,27.88
2023-05-05T12:29:21.025Z,27.88
2023-05-05T12:30:21.197Z,27.89
2023-05-05T12:31:21.151Z,27.89
2023-05-05T12:32:21.162Z,27.86
2023-05-05T12:33:21.106Z,27.86
2023-05-05T12:34:21.161Z,27.85
2023-05-05T12:35:21.716Z,27.85
2023-05-05T12:36:21.186Z,27.83
2023-05-05T12:37:21.207Z,27.85
2023-05-05T12:38:21.251Z,27.85
2023-05-05T12:39:21.314Z,27.85
2023-05-05T12:40:21.666Z,27.82
2023-05-05T12:41:21.285Z,27.83
2023-05-05T12:42:21.314Z,27.83
2023-05-05T12:43:21.329Z,27.82
2023-05-05T12:44:21.378Z,27.83
2023-05-05T12:45:21.694Z,27.85
2023-05-05T12:46:21.413Z,27.85
2023-05-05T12:47:21.417Z,27.85
2023-05-05T12:48:21.448Z,27.83
2023-05-05T12:49:21.448Z,27.83
2023-05-05T12:50:21.496Z,27.85
2023-05-05T12:51:21.530Z,27.85
2023-05-05T12:52:21.537Z,27.85
2023-05-05T12:53:21.541Z,27.85